createdAt,value
2018-04-27T00:01:01.015Z,28.44
2018-04-27T00:03:32.978Z,28.45
2018-04-27T00:06:05.278Z,28.26
2018-04-27T00:08:37.345Z,28.20
2018-04-27T00:11:09.286Z,28.14
2018-04-27T00:13:40.971Z,28.19
2018-04-27T00:16:13.057Z,28.29
2018-04-27T00:18:44.984Z,28.16
2018-04-27T00:21:16.710Z,28.21
2018-04-27T00:23:47.546Z,28.07
2018-04-27T00:28:57.269Z,28.23
2018-04-27T00:31:29.162Z,28.24
2018-04-27T00:34:01.082Z,28.28
2018-04-27T00:36:32.993Z,28.36
2018-04-27T00:39:04.815Z,28.46
2018-04-27T00:41:35.585Z,28.38
2018-04-27T00:44:07.573Z,28.47
2018-04-27T00:46:39.488Z,28.46
2018-04-27T00:49:11.719Z,28.51
2018-04-27T00:51:43.694Z,28.61
2018-04-27T00:54:15.583Z,28.50
2018-04-27T00:56:47.507Z,28.72
2018-04-27T00:59:19.079Z,28.75
2018-04-27T01:01:50.810Z,28.80
2018-04-27T01:04:22.552Z,28.86
2018-04-27T01:07:53.555Z,28.94
2018-04-27T01:10:25.374Z,28.97
2018-04-27T01:12:57.016Z,29.13
2018-04-27T01:15:28.579Z,29.14
2018-04-27T01:18:00.182Z,29.20
2018-04-27T01:20:31.588Z,29.18
2018-04-27T01:23:03.303Z,29.26
2018-04-27T01:26:26.597Z,29.39
2018-04-27T01:28:59.028Z,29.38
2018-04-27T01:31:30.986Z,29.34
2018-04-27T01:34:31.579Z,29.45
2018-04-27T01:37:04.816Z,29.38
2018-04-27T01:39:37.406Z,29.44
2018-04-27T01:42:09.455Z,29.40
2018-04-27T01:44:42.091Z,29.35
2018-04-27T01:47:13.515Z,29.31
2018-04-27T01:49:45.049Z,29.48
2018-04-27T01:52:17.054Z,29.45
2018-04-27T01:54:49.464Z,29.34
2018-04-27T01:57:21.535Z,29.34
2018-04-27T01:59:53.741Z,29.52
2018-04-27T02:02:25.555Z,29.45
2018-04-27T02:05:45.446Z,29.65
2018-04-27T02:08:17.502Z,29.48
2018-04-27T02:10:49.310Z,29.34
2018-04-27T02:13:21.224Z,29.46
2018-04-27T02:15:53.201Z,29.45
2018-04-27T02:18:24.937Z,29.50
2018-04-27T02:20:56.757Z,29.63
2018-04-27T02:23:28.423Z,29.72
2018-04-27T02:26:00.096Z,29.57
2018-04-27T02:28:30.889Z,29.60
2018-04-27T02:31:02.999Z,29.52
2018-04-27T02:33:34.542Z,29.65
2018-04-27T02:36:08.234Z,29.55
2018-04-27T02:38:40.042Z,29.61
2018-04-27T02:41:11.878Z,29.67
2018-04-27T02:43:44.260Z,29.82
2018-04-27T02:46:17.073Z,29.96
2018-04-27T02:48:49.295Z,30.08
2018-04-27T02:51:21.015Z,30.11
2018-04-27T02:53:53.073Z,30.11
2018-04-27T02:56:25.042Z,30.03
2018-04-27T02:58:57.089Z,29.94
2018-04-27T03:01:28.864Z,30.03
2018-04-27T03:04:01.229Z,29.79
2018-04-27T03:06:33.049Z,29.73
2018-04-27T03:09:04.507Z,29.70
2018-04-27T03:11:35.011Z,29.64
2018-04-27T03:14:06.983Z,29.74
2018-04-27T03:16:38.509Z,29.72
2018-04-27T03:19:10.261Z,29.59
2018-04-27T03:21:42.023Z,29.63
2018-04-27T03:24:13.519Z,29.51
2018-04-27T03:26:45.242Z,29.62
2018-04-27T03:29:17.274Z,29.65
2018-04-27T03:31:49.019Z,29.72
2018-04-27T03:34:21.091Z,29.88
2018-04-27T03:36:52.789Z,29.79
2018-04-27T03:39:24.881Z,29.76
2018-04-27T03:41:56.739Z,29.93
2018-04-27T03:44:28.417Z,29.93
2018-04-27T03:47:00.155Z,29.86
2018-04-27T03:49:32.389Z,29.89
2018-04-27T03:52:04.529Z,29.96
2018-04-27T03:54:36.454Z,29.96
2018-04-27T03:57:08.513Z,29.95
2018-04-27T03:59:51.435Z,30.24
2018-04-27T04:02:34.916Z,30.23
2018-04-27T04:05:17.520Z,30.82
2018-04-27T04:07:49.597Z,31.14
2018-04-27T04:10:21.905Z,31.72
2018-04-27T04:15:38.526Z,31.45
2018-04-27T04:18:11.382Z,31.43
2018-04-27T04:20:44.232Z,31.43
2018-04-27T04:23:16.440Z,31.11
2018-04-27T04:25:48.755Z,31.29
2018-04-27T04:28:20.746Z,31.48
2018-04-27T04:30:53.765Z,31.72
2018-04-27T04:33:27.576Z,31.88
2018-04-27T04:35:59.369Z,31.77
2018-04-27T04:38:31.502Z,31.99
2018-04-27T04:41:03.004Z,31.77
2018-04-27T04:43:34.483Z,31.91
2018-04-27T04:46:06.436Z,31.81
2018-04-27T04:48:39.370Z,31.92
2018-04-27T04:51:12.396Z,32.00
2018-04-27T04:53:44.439Z,32.09
2018-04-27T04:56:16.498Z,32.04
2018-04-27T04:58:48.816Z,32.14
2018-04-27T05:01:20.502Z,32.24
2018-04-27T05:03:52.376Z,32.05
2018-04-27T05:06:24.041Z,32.05
2018-04-27T05:08:56.187Z,32.27
2018-04-27T05:13:54.146Z,32.47
2018-04-27T05:16:26.247Z,32.39
2018-04-27T05:19:05.409Z,32.28
2018-04-27T05:21:36.924Z,32.64
2018-04-27T05:24:08.717Z,32.67
2018-04-27T05:26:40.403Z,32.71
2018-04-27T05:29:12.582Z,32.88
2018-04-27T05:31:44.467Z,32.56
2018-04-27T05:34:16.805Z,32.94
2018-04-27T05:36:48.638Z,32.82
2018-04-27T05:39:20.527Z,32.72
2018-04-27T05:41:52.414Z,32.76
2018-04-27T05:44:24.111Z,32.93
2018-04-27T05:46:56.211Z,33.03
2018-04-27T05:49:28.379Z,33.04
2018-04-27T05:52:00.043Z,32.87
2018-04-27T05:54:32.063Z,32.90
2018-04-27T05:57:03.758Z,32.86
2018-04-27T05:59:35.527Z,32.97
2018-04-27T06:02:09.668Z,33.02
2018-04-27T06:04:41.492Z,33.25
2018-04-27T06:07:13.056Z,33.11
2018-04-27T06:09:44.741Z,32.85
2018-04-27T06:12:16.395Z,32.82
2018-04-27T06:14:48.103Z,32.82
2018-04-27T06:17:19.657Z,32.86
2018-04-27T06:19:51.934Z,32.84
2018-04-27T06:22:25.308Z,32.97
2018-04-27T06:24:57.218Z,33.13
2018-04-27T06:27:28.895Z,33.15
2018-04-27T06:30:01.308Z,33.14
2018-04-27T06:32:34.304Z,33.37
2018-04-27T06:35:07.720Z,33.46
2018-04-27T06:37:41.532Z,33.51
2018-04-27T06:40:14.739Z,33.61
2018-04-27T06:42:48.735Z,33.79
2018-04-27T06:45:22.258Z,33.73
2018-04-27T06:47:55.744Z,33.76
2018-04-27T06:50:28.508Z,34.00
2018-04-27T06:53:01.919Z,34.03
2018-04-27T06:55:35.667Z,34.24
2018-04-27T06:58:08.683Z,34.19
2018-04-27T07:00:42.565Z,34.09
2018-04-27T07:03:15.404Z,34.13
2018-04-27T07:05:48.437Z,34.00
2018-04-27T07:08:21.953Z,34.12
2018-04-27T07:10:54.446Z,34.13
2018-04-27T07:13:27.257Z,34.45
2018-04-27T07:16:00.455Z,34.40
2018-04-27T07:18:33.625Z,34.42
2018-04-27T07:21:06.680Z,34.45
2018-04-27T07:23:39.428Z,34.42
2018-04-27T07:26:13.049Z,34.70
2018-04-27T07:28:45.990Z,34.17
2018-04-27T07:31:19.287Z,34.33
2018-04-27T07:33:52.500Z,34.55
2018-04-27T07:36:26.472Z,34.28
2018-04-27T07:38:59.544Z,34.41
2018-04-27T07:41:33.072Z,34.32
2018-04-27T07:44:06.774Z,34.56
2018-04-27T07:46:39.526Z,34.75
2018-04-27T07:49:12.485Z,34.68
2018-04-27T07:51:45.550Z,34.83
2018-04-27T07:54:17.957Z,34.84
2018-04-27T07:56:51.330Z,34.89
2018-04-27T07:59:23.941Z,34.83
2018-04-27T08:01:56.492Z,34.77
2018-04-27T08:04:29.456Z,35.00
2018-04-27T08:07:02.625Z,35.01
2018-04-27T08:09:35.450Z,34.67
2018-04-27T08:12:08.627Z,34.88
2018-04-27T08:17:22.422Z,35.02
2018-04-27T08:19:55.563Z,35.02
2018-04-27T08:22:28.039Z,35.18
2018-04-27T08:25:00.940Z,35.18
2018-04-27T08:27:33.547Z,35.20
2018-04-27T08:30:07.062Z,35.39
2018-04-27T08:32:40.013Z,35.21
2018-04-27T08:35:12.931Z,35.10
2018-04-27T08:37:45.854Z,34.87
2018-04-27T08:40:19.017Z,34.95
2018-04-27T08:42:52.392Z,35.36
2018-04-27T08:45:25.619Z,35.45
2018-04-27T08:47:58.480Z,35.52
2018-04-27T08:50:31.708Z,35.51
2018-04-27T08:53:04.412Z,35.59
2018-04-27T08:55:36.968Z,35.68
2018-04-27T08:58:10.291Z,35.77
2018-04-27T09:00:43.266Z,35.13
2018-04-27T09:03:16.258Z,35.24
2018-04-27T09:05:49.759Z,35.38
2018-04-27T09:08:22.752Z,35.33
2018-04-27T09:10:56.548Z,35.15
2018-04-27T09:13:30.619Z,35.32
2018-04-27T09:16:03.374Z,35.65
2018-04-27T09:18:36.404Z,35.54
2018-04-27T09:21:09.719Z,35.55
2018-04-27T09:23:42.367Z,35.56
2018-04-27T09:26:15.709Z,35.50
2018-04-27T09:28:48.137Z,35.66
2018-04-27T09:31:21.287Z,35.93
2018-04-27T09:33:54.657Z,35.80
2018-04-27T09:36:28.386Z,35.94
2018-04-27T09:39:01.026Z,36.02
2018-04-27T09:41:34.060Z,35.93
2018-04-27T09:44:06.602Z,36.05
2018-04-27T09:46:40.470Z,36.20
2018-04-27T09:49:13.532Z,36.09
2018-04-27T09:51:47.298Z,36.23
2018-04-27T09:54:20.229Z,36.33
2018-04-27T09:56:53.443Z,36.23
2018-04-27T09:59:26.396Z,36.33
2018-04-27T10:01:59.228Z,36.41
2018-04-27T10:04:32.414Z,36.63
2018-04-27T10:07:05.719Z,36.52
2018-04-27T10:09:38.975Z,36.68
2018-04-27T10:12:12.457Z,36.46
2018-04-27T10:14:45.468Z,36.52
2018-04-27T10:17:18.673Z,36.68
2018-04-27T10:19:52.226Z,36.75
2018-04-27T10:22:25.511Z,36.77
2018-04-27T10:24:58.512Z,36.89
2018-04-27T10:27:32.522Z,36.90
2018-04-27T10:30:05.216Z,36.94
2018-04-27T10:32:38.293Z,36.97
2018-04-27T10:35:11.382Z,37.12
2018-04-27T10:37:44.487Z,37.13
2018-04-27T10:40:17.473Z,37.13
2018-04-27T10:42:50.844Z,37.32
2018-04-27T10:45:23.487Z,37.28
2018-04-27T10:47:56.588Z,37.65
2018-04-27T10:50:29.858Z,37.50
2018-04-27T10:53:03.938Z,37.67
2018-04-27T10:55:37.542Z,37.88
2018-04-27T10:58:10.419Z,37.65
2018-04-27T11:00:43.433Z,37.75
2018-04-27T11:03:16.777Z,37.83
2018-04-27T11:05:49.707Z,37.62
2018-04-27T11:08:23.520Z,37.55
2018-04-27T11:10:57.006Z,37.89
2018-04-27T11:13:30.724Z,37.68
2018-04-27T11:16:03.927Z,37.88
2018-04-27T11:18:37.718Z,37.88
2018-04-27T11:21:11.920Z,38.01
2018-04-27T11:23:45.021Z,38.02
2018-04-27T11:26:18.454Z,38.02
2018-04-27T11:28:51.391Z,37.94
2018-04-27T11:31:24.082Z,38.03
2018-04-27T11:33:57.515Z,38.09
2018-04-27T11:36:30.676Z,38.03
2018-04-27T11:39:03.649Z,38.33
2018-04-27T11:41:36.941Z,38.35
2018-04-27T11:44:09.948Z,38.57
2018-04-27T11:46:43.421Z,38.40
2018-04-27T11:49:16.627Z,38.42
2018-04-27T11:51:48.917Z,38.54
2018-04-27T11:54:22.387Z,38.55
2018-04-27T11:56:55.610Z,38.76
2018-04-27T11:59:29.477Z,38.83
2018-04-27T12:02:03.017Z,38.83
2018-04-27T12:04:35.511Z,38.74
2018-04-27T12:07:08.422Z,38.75
2018-04-27T12:09:41.413Z,38.81
2018-04-27T12:12:14.566Z,38.81
2018-04-27T12:14:47.399Z,38.97
2018-04-27T12:17:20.215Z,38.95
2018-04-27T12:19:52.697Z,38.96
2018-04-27T12:22:26.060Z,39.01
2018-04-27T12:24:59.310Z,39.14
2018-04-27T12:27:31.664Z,39.28
2018-04-27T12:30:04.468Z,39.29
2018-04-27T12:32:37.519Z,39.22
2018-04-27T12:35:10.626Z,39.19
2018-04-27T12:37:43.998Z,39.21
2018-04-27T12:40:16.599Z,39.20
2018-04-27T12:42:49.584Z,39.28
2018-04-27T12:45:22.393Z,39.32
2018-04-27T12:47:55.296Z,39.46
2018-04-27T12:50:28.329Z,39.42
2018-04-27T12:53:01.505Z,39.48
2018-04-27T12:55:34.748Z,39.68
2018-04-27T12:58:06.326Z,39.74
2018-04-27T13:00:39.373Z,39.70
2018-04-27T13:03:12.424Z,39.71
2018-04-27T13:05:46.061Z,39.77
2018-04-27T13:08:18.768Z,39.97
2018-04-27T13:10:51.639Z,40.06
2018-04-27T13:13:24.440Z,40.06
2018-04-27T13:15:57.045Z,39.96
2018-04-27T13:18:30.456Z,40.04
2018-04-27T13:21:03.384Z,40.08
2018-04-27T13:23:36.630Z,40.22
2018-04-27T13:26:09.765Z,40.38
2018-04-27T13:28:42.964Z,40.43
2018-04-27T13:31:15.938Z,40.30
2018-04-27T13:33:48.572Z,40.40
2018-04-27T13:36:21.664Z,40.44
2018-04-27T13:38:54.151Z,40.43
2018-04-27T13:41:27.305Z,40.43
2018-04-27T13:44:00.435Z,40.44
2018-04-27T13:46:33.203Z,40.55
2018-04-27T13:49:06.055Z,40.58
2018-04-27T13:51:39.464Z,40.59
2018-04-27T13:54:12.421Z,40.65
2018-04-27T13:56:45.070Z,40.79
2018-04-27T13:59:18.097Z,40.79
2018-04-27T14:01:51.445Z,40.92
2018-04-27T14:04:24.454Z,40.91
2018-04-27T14:06:57.781Z,40.78
2018-04-27T14:09:31.301Z,41.02
2018-04-27T14:12:04.017Z,40.85
2018-04-27T14:14:36.693Z,40.91
2018-04-27T14:17:09.521Z,40.75
2018-04-27T14:19:42.704Z,40.72
2018-04-27T14:22:16.515Z,40.70
2018-04-27T14:24:50.206Z,40.89
2018-04-27T14:27:22.692Z,40.87
2018-04-27T14:29:55.023Z,40.99
2018-04-27T14:32:28.521Z,40.93
2018-04-27T14:35:02.348Z,40.90
2018-04-27T14:37:35.405Z,40.86
2018-04-27T14:40:08.824Z,40.90
2018-04-27T14:42:42.632Z,40.93
2018-04-27T14:45:15.515Z,40.94
2018-04-27T14:47:48.463Z,40.92
2018-04-27T14:50:21.410Z,40.94
2018-04-27T14:52:54.422Z,40.87
2018-04-27T14:55:28.469Z,41.03
2018-04-27T14:58:01.788Z,40.91
2018-04-27T15:00:34.741Z,40.95
2018-04-27T15:03:08.220Z,40.91
2018-04-27T15:05:41.450Z,41.04
2018-04-27T15:08:14.586Z,41.23
2018-04-27T15:10:47.569Z,41.39
2018-04-27T15:13:21.550Z,41.92
2018-04-27T15:15:54.438Z,41.80
2018-04-27T15:18:27.541Z,41.59
2018-04-27T15:21:00.462Z,41.90
2018-04-27T15:23:33.915Z,41.64
2018-04-27T15:26:07.405Z,41.61
2018-04-27T15:28:39.946Z,41.68
2018-04-27T15:31:13.689Z,41.69
2018-04-27T15:33:48.656Z,41.74
2018-04-27T15:36:21.947Z,41.70
2018-04-27T15:38:54.741Z,41.63
2018-04-27T15:41:28.553Z,41.80
2018-04-27T15:44:00.470Z,41.87
2018-04-27T15:46:33.525Z,42.02
2018-04-27T15:49:06.892Z,42.09
2018-04-27T15:51:39.526Z,42.04
2018-04-27T15:54:12.632Z,42.15
2018-04-27T15:56:45.167Z,42.37
2018-04-27T15:59:18.053Z,42.09
2018-04-27T16:01:50.436Z,41.94
2018-04-27T16:04:24.241Z,42.24
2018-04-27T16:06:57.107Z,42.17
2018-04-27T16:09:30.483Z,42.06
2018-04-27T16:12:03.397Z,42.13
2018-04-27T16:14:35.948Z,42.10
2018-04-27T16:17:09.304Z,42.13
2018-04-27T16:19:42.161Z,41.98
2018-04-27T16:22:15.410Z,42.00
2018-04-27T16:24:48.479Z,42.23
2018-04-27T16:27:21.331Z,42.19
2018-04-27T16:29:54.029Z,42.01
2018-04-27T16:32:27.314Z,42.08
2018-04-27T16:35:00.704Z,42.13
2018-04-27T16:37:34.085Z,42.07
2018-04-27T16:40:08.520Z,42.04
2018-04-27T16:42:42.667Z,41.98
2018-04-27T16:45:16.919Z,42.06
2018-04-27T16:47:48.696Z,41.89
2018-04-27T16:50:21.875Z,41.92
2018-04-27T16:52:53.532Z,41.91
2018-04-27T16:55:25.012Z,41.81
2018-04-27T16:57:56.937Z,41.86
2018-04-27T17:00:28.491Z,41.91
2018-04-27T17:03:00.179Z,41.75
2018-04-27T17:05:31.612Z,41.81
2018-04-27T17:08:03.562Z,41.72
2018-04-27T17:10:35.410Z,41.73
2018-04-27T17:13:07.321Z,41.59
2018-04-27T17:15:38.950Z,41.57
2018-04-27T17:18:10.535Z,41.39
2018-04-27T17:20:42.431Z,41.25
2018-04-27T17:23:14.418Z,41.25
2018-04-27T17:25:45.965Z,41.15
2018-04-27T17:28:20.059Z,41.25
2018-04-27T17:30:53.430Z,41.06
2018-04-27T17:33:25.328Z,40.98
2018-04-27T17:35:56.955Z,41.20
2018-04-27T17:38:28.585Z,41.03
2018-04-27T17:41:02.547Z,41.31
2018-04-27T17:43:34.254Z,41.25
2018-04-27T17:46:05.964Z,41.30
2018-04-27T17:48:37.326Z,41.32
2018-04-27T17:51:08.946Z,41.24
2018-04-27T17:53:41.060Z,41.20
2018-04-27T17:56:12.987Z,41.20
2018-04-27T17:58:45.063Z,41.19
2018-04-27T18:01:17.032Z,41.14
2018-04-27T18:03:48.933Z,41.03
2018-04-27T18:06:21.056Z,40.99
2018-04-27T18:08:52.563Z,40.82
2018-04-27T18:11:23.058Z,40.75
2018-04-27T18:13:54.981Z,40.43
2018-04-27T18:16:26.553Z,40.24
2018-04-27T18:18:58.335Z,40.41
2018-04-27T18:21:29.967Z,40.52
2018-04-27T18:24:01.677Z,40.71
2018-04-27T18:26:33.301Z,40.72
2018-04-27T18:29:04.951Z,40.70
2018-04-27T18:31:36.498Z,40.63
2018-04-27T18:34:10.549Z,40.59
2018-04-27T18:36:44.442Z,40.53
2018-04-27T18:39:18.219Z,40.56
2018-04-27T18:41:51.340Z,40.24
2018-04-27T18:44:25.352Z,40.37
2018-04-27T18:46:58.549Z,40.39
2018-04-27T18:49:32.558Z,40.41
2018-04-27T18:52:05.616Z,40.42
2018-04-27T18:54:38.946Z,40.12
2018-04-27T18:57:11.891Z,39.97
2018-04-27T18:59:51.869Z,40.05
2018-04-27T19:02:24.496Z,40.01
2018-04-27T19:04:57.431Z,39.90
2018-04-27T19:07:30.452Z,39.86
2018-04-27T19:10:03.110Z,39.79
2018-04-27T19:12:35.943Z,39.83
2018-04-27T19:15:08.987Z,39.75
2018-04-27T19:17:42.180Z,39.57
2018-04-27T19:20:15.080Z,39.62
2018-04-27T19:22:48.139Z,39.60
2018-04-27T19:25:21.433Z,39.49
2018-04-27T19:27:54.462Z,39.41
2018-04-27T19:30:27.701Z,39.48
2018-04-27T19:33:01.355Z,39.33
2018-04-27T19:35:34.557Z,39.35
2018-04-27T19:38:07.346Z,39.25
2018-04-27T19:40:41.247Z,39.32
2018-04-27T19:43:14.090Z,38.75
2018-04-27T19:45:47.113Z,38.38
2018-04-27T19:48:20.514Z,38.62
2018-04-27T19:50:53.694Z,38.62
2018-04-27T19:53:27.032Z,38.58
2018-04-27T19:56:00.551Z,38.64
2018-04-27T19:58:35.439Z,38.38
2018-04-27T20:01:08.674Z,38.38
2018-04-27T20:03:42.170Z,38.34
2018-04-27T20:06:15.433Z,38.33
2018-04-27T20:08:47.981Z,38.14
2018-04-27T20:11:21.094Z,37.91
2018-04-27T20:13:54.157Z,37.97
2018-04-27T20:17:09.447Z,37.54
2018-04-27T20:19:46.381Z,37.70
2018-04-27T20:22:22.399Z,37.56
2018-04-27T20:24:57.398Z,37.17
2018-04-27T20:30:35.573Z,36.95
2018-04-27T20:33:10.296Z,36.99
2018-04-27T20:35:43.497Z,36.37
2018-04-27T20:38:22.920Z,36.33
2018-04-27T20:40:55.663Z,36.38
2018-04-27T20:43:29.246Z,36.36
2018-04-27T20:46:02.638Z,36.15
2018-04-27T20:48:35.616Z,35.83
2018-04-27T20:51:10.498Z,35.90
2018-04-27T20:54:00.848Z,36.01
2018-04-27T20:59:38.569Z,35.74
2018-04-27T21:02:11.372Z,35.75
2018-04-27T21:04:44.247Z,35.68
2018-04-27T21:07:17.941Z,35.33
2018-04-27T21:09:51.039Z,35.37
2018-04-27T21:12:23.373Z,35.37
2018-04-27T21:14:57.514Z,35.25
2018-04-27T21:17:29.915Z,35.09
2018-04-27T21:20:02.374Z,35.15
2018-04-27T21:24:08.225Z,34.87
2018-04-27T21:26:40.508Z,34.68
2018-04-27T21:29:12.454Z,34.59
2018-04-27T21:31:45.086Z,34.46
2018-04-27T21:34:17.040Z,34.42
2018-04-27T21:36:56.221Z,34.33
2018-04-27T21:39:36.449Z,34.21
2018-04-27T21:45:14.534Z,33.99
2018-04-27T21:47:50.218Z,33.93
2018-04-27T21:50:24.754Z,34.10
2018-04-27T21:52:57.251Z,34.13
2018-04-27T21:55:28.957Z,33.81
2018-04-27T21:58:06.094Z,33.80
2018-04-27T22:00:39.398Z,33.67
2018-04-27T22:03:49.335Z,33.47
2018-04-27T22:06:23.099Z,33.37
2018-04-27T22:09:10.448Z,33.34
2018-04-27T22:11:46.961Z,33.24
2018-04-27T22:14:36.929Z,33.20
2018-04-27T22:17:18.658Z,33.13
2018-04-27T22:19:50.247Z,32.89
2018-04-27T22:22:23.394Z,32.79
2018-04-27T22:24:55.581Z,32.72
2018-04-27T22:27:31.316Z,32.73
2018-04-27T22:30:05.254Z,32.50
2018-04-27T22:32:39.522Z,32.28
2018-04-27T22:35:16.502Z,32.20
2018-04-27T22:37:49.572Z,32.17
2018-04-27T22:43:41.743Z,31.84
2018-04-27T22:46:14.442Z,31.71
2018-04-27T22:48:50.249Z,31.57
2018-04-27T22:51:27.470Z,31.59
2018-04-27T22:54:02.214Z,31.63
2018-04-27T22:56:48.145Z,31.33
2018-04-27T23:02:06.884Z,31.14
2018-04-27T23:04:38.780Z,31.00
2018-04-27T23:07:10.293Z,31.00
2018-04-27T23:09:41.963Z,31.02
2018-04-27T23:12:14.257Z,31.22
2018-04-27T23:14:49.014Z,31.13
2018-04-27T23:17:21.476Z,31.16
2018-04-27T23:19:56.809Z,30.65
2018-04-27T23:22:42.073Z,30.17
2018-04-27T23:25:31.327Z,30.03
2018-04-27T23:28:02.973Z,29.94
2018-04-27T23:30:37.329Z,30.19
2018-04-27T23:33:08.870Z,29.90
2018-04-27T23:38:47.591Z,29.54
2018-04-27T23:41:19.015Z,29.51
2018-04-27T23:43:50.784Z,29.53
2018-04-27T23:46:26.242Z,29.47
2018-04-27T23:48:57.860Z,29.40
2018-04-27T23:51:29.564Z,29.11
2018-04-27T23:54:01.958Z,29.20
2018-04-27T23:56:36.664Z,28.75
2018-04-27T23:59:08.493Z,28.72
